createdAt,value
2022-10-05T00:00:03.302Z,982.50
2022-10-05T00:01:03.253Z,982.47
2022-10-05T00:02:03.377Z,982.52
2022-10-05T00:03:03.214Z,982.52
2022-10-05T00:04:03.030Z,982.49
2022-10-05T00:05:03.003Z,982.41
2022-10-05T00:06:02.940Z,982.44
2022-10-05T00:07:02.986Z,982.49
2022-10-05T00:08:02.868Z,982.52
2022-10-05T00:09:03.001Z,982.43
2022-10-05T00:10:03.157Z,982.35
2022-10-05T00:11:03.254Z,982.32
2022-10-05T00:12:03.336Z,982.46
2022-10-05T00:13:03.390Z,982.43
2022-10-05T00:14:03.453Z,982.40
2022-10-05T00:15:03.279Z,982.34
2022-10-05T00:16:03.427Z,982.48
2022-10-05T00:17:03.533Z,982.37
2022-10-05T00:18:03.508Z,982.37
2022-10-05T00:19:03.487Z,982.45
2022-10-05T00:20:03.599Z,982.45
2022-10-05T00:21:03.654Z,982.40
2022-10-05T00:22:03.509Z,982.23
2022-10-05T00:23:03.638Z,982.28
2022-10-05T00:24:03.540Z,982.28
2022-10-05T00:25:03.517Z,982.40
2022-10-05T00:26:03.605Z,982.48
2022-10-05T00:27:03.552Z,982.40
2022-10-05T00:28:03.685Z,982.45
2022-10-05T00:29:03.764Z,982.45
2022-10-05T00:30:03.690Z,982.57
2022-10-05T00:31:03.795Z,982.37
2022-10-05T00:32:03.894Z,982.45
2022-10-05T00:33:03.727Z,982.45
2022-10-05T00:34:03.881Z,982.43
2022-10-05T00:35:03.766Z,982.37
2022-10-05T00:36:03.762Z,982.43
2022-10-05T00:37:03.707Z,982.40
2022-10-05T00:38:03.791Z,982.34
2022-10-05T00:39:03.847Z,982.46
2022-10-05T00:40:03.913Z,982.46
2022-10-05T00:41:02.973Z,982.37
2022-10-05T00:42:02.910Z,982.54
2022-10-05T00:43:02.967Z,982.46
2022-10-05T00:44:02.916Z,982.46
2022-10-05T00:45:02.961Z,982.46
2022-10-05T00:46:03.082Z,982.37
2022-10-05T00:47:02.998Z,982.35
2022-10-05T00:48:02.949Z,982.32
2022-10-05T00:49:02.973Z,982.26
2022-10-05T00:50:03.879Z,982.29
2022-10-05T00:51:02.896Z,982.18
2022-10-05T00:52:03.072Z,982.35
2022-10-05T00:53:03.039Z,982.43
2022-10-05T00:54:02.969Z,982.35
2022-10-05T00:55:02.970Z,982.43
2022-10-05T00:56:03.961Z,982.35
2022-10-05T00:57:02.974Z,982.35
2022-10-05T00:58:02.879Z,982.12
2022-10-05T00:59:03.888Z,982.26
2022-10-05T01:00:02.901Z,982.29
2022-10-05T01:01:03.044Z,982.12
2022-10-05T01:02:03.064Z,982.29
2022-10-05T01:03:03.005Z,982.09
2022-10-05T01:04:03.053Z,982.23
2022-10-05T01:05:03.112Z,982.12
2022-10-05T01:06:03.144Z,982.23
2022-10-05T01:07:03.267Z,982.12
2022-10-05T01:08:03.182Z,982.21
2022-10-05T01:09:03.245Z,982.18
2022-10-05T01:10:03.248Z,982.15
2022-10-05T01:11:03.305Z,982.21
2022-10-05T01:12:03.374Z,982.38
2022-10-05T01:13:03.381Z,982.21
2022-10-05T01:14:03.311Z,982.26
2022-10-05T01:15:03.393Z,982.35
2022-10-05T01:16:03.414Z,982.18
2022-10-05T01:17:03.414Z,982.09
2022-10-05T01:18:03.281Z,982.18
2022-10-05T01:19:03.371Z,982.01
2022-10-05T01:20:03.292Z,981.98
2022-10-05T01:21:03.249Z,982.01
2022-10-05T01:22:03.399Z,982.15
2022-10-05T01:23:03.475Z,982.15
2022-10-05T01:24:03.508Z,982.07
2022-10-05T01:25:03.456Z,982.01
2022-10-05T01:26:03.438Z,982.07
2022-10-05T01:27:03.350Z,982.27
2022-10-05T01:28:03.591Z,982.18
2022-10-05T01:29:03.453Z,982.07
2022-10-05T01:30:03.364Z,982.15
2022-10-05T01:31:03.799Z,982.18
2022-10-05T01:32:03.583Z,982.21
2022-10-05T01:33:03.616Z,982.10
2022-10-05T01:34:11.400Z,982.07
2022-10-05T01:35:03.559Z,982.04
2022-10-05T01:36:03.578Z,982.13
2022-10-05T01:37:03.638Z,982.07
2022-10-05T01:38:03.589Z,982.19
2022-10-05T01:39:03.623Z,982.07
2022-10-05T01:40:03.619Z,982.13
2022-10-05T01:41:03.471Z,982.19
2022-10-05T01:42:03.582Z,982.10
2022-10-05T01:43:03.661Z,982.13
2022-10-05T01:44:03.736Z,982.25
2022-10-05T01:45:03.766Z,982.13
2022-10-05T01:46:03.730Z,982.10
2022-10-05T01:47:03.671Z,982.16
2022-10-05T01:48:03.764Z,982.05
2022-10-05T01:49:03.819Z,982.10
2022-10-05T01:50:03.825Z,981.99
2022-10-05T01:51:03.877Z,982.13
2022-10-05T01:52:03.842Z,982.13
2022-10-05T01:53:03.848Z,982.22
2022-10-05T01:54:03.766Z,982.11
2022-10-05T01:55:03.901Z,982.16
2022-10-05T01:56:03.834Z,982.13
2022-10-05T01:57:03.845Z,982.22
2022-10-05T01:58:03.793Z,982.13
2022-10-05T01:59:03.881Z,982.08
2022-10-05T02:00:03.887Z,982.08
2022-10-05T02:01:03.979Z,982.11
2022-10-05T02:02:03.926Z,982.11
2022-10-05T02:03:03.780Z,982.11
2022-10-05T02:04:03.731Z,982.08
2022-10-05T02:05:03.948Z,982.11
2022-10-05T02:06:03.669Z,981.99
2022-10-05T02:07:03.718Z,981.94
2022-10-05T02:08:03.609Z,981.91
2022-10-05T02:09:03.669Z,981.91
2022-10-05T02:10:03.655Z,981.79
2022-10-05T02:11:03.605Z,981.79
2022-10-05T02:12:03.583Z,981.82
2022-10-05T02:13:03.639Z,981.82
2022-10-05T02:14:03.656Z,981.88
2022-10-05T02:15:03.490Z,981.85
2022-10-05T02:16:03.797Z,981.88
2022-10-05T02:17:03.650Z,981.73
2022-10-05T02:18:03.637Z,981.65
2022-10-05T02:19:03.563Z,981.79
2022-10-05T02:20:03.510Z,981.73
2022-10-05T02:21:03.531Z,981.73
2022-10-05T02:22:03.628Z,981.70
2022-10-05T02:23:03.538Z,981.67
2022-10-05T02:24:03.464Z,981.82
2022-10-05T02:25:03.524Z,981.76
2022-10-05T02:26:03.459Z,981.82
2022-10-05T02:27:03.464Z,981.70
2022-10-05T02:28:03.451Z,981.67
2022-10-05T02:29:03.315Z,981.67
2022-10-05T02:30:03.304Z,981.64
2022-10-05T02:31:03.546Z,981.70
2022-10-05T02:32:03.413Z,981.64
2022-10-05T02:33:03.381Z,981.81
2022-10-05T02:34:03.415Z,981.70
2022-10-05T02:35:03.412Z,981.56
2022-10-05T02:36:03.477Z,981.54
2022-10-05T02:37:03.319Z,981.70
2022-10-05T02:38:03.421Z,981.67
2022-10-05T02:39:03.346Z,981.56
2022-10-05T02:40:03.356Z,981.64
2022-10-05T02:41:03.287Z,981.67
2022-10-05T02:42:03.316Z,981.75
2022-10-05T02:43:03.324Z,981.69
2022-10-05T02:44:03.344Z,981.67
2022-10-05T02:45:03.226Z,981.58
2022-10-05T02:46:03.371Z,981.72
2022-10-05T02:47:03.294Z,981.69
2022-10-05T02:48:03.203Z,981.81
2022-10-05T02:49:03.177Z,981.78
2022-10-05T02:50:03.103Z,981.78
2022-10-05T02:51:03.256Z,981.81
2022-10-05T02:52:03.116Z,981.87
2022-10-05T02:53:03.168Z,981.78
2022-10-05T02:54:03.453Z,981.67
2022-10-05T02:55:03.423Z,981.75
2022-10-05T02:56:03.325Z,981.78
2022-10-05T02:57:03.380Z,981.95
2022-10-05T02:58:03.434Z,981.90
2022-10-05T02:59:03.458Z,982.04
2022-10-05T03:00:03.701Z,981.93
2022-10-05T03:01:03.930Z,982.04
2022-10-05T03:02:03.835Z,982.10
2022-10-05T03:03:03.819Z,982.04
2022-10-05T03:04:03.903Z,982.01
2022-10-05T03:05:03.852Z,982.04
2022-10-05T03:06:03.735Z,982.13
2022-10-05T03:07:03.782Z,982.02
2022-10-05T03:08:03.870Z,981.99
2022-10-05T03:09:03.744Z,981.93
2022-10-05T03:10:03.663Z,981.93
2022-10-05T03:11:03.858Z,981.93
2022-10-05T03:12:03.780Z,982.02
2022-10-05T03:13:03.845Z,981.96
2022-10-05T03:14:02.947Z,981.99
2022-10-05T03:15:03.058Z,981.91
2022-10-05T03:16:03.198Z,981.93
2022-10-05T03:17:03.113Z,981.88
2022-10-05T03:18:03.013Z,981.91
2022-10-05T03:19:02.988Z,981.68
2022-10-05T03:20:03.043Z,981.79
2022-10-05T03:21:03.033Z,981.82
2022-10-05T03:22:03.027Z,981.88
2022-10-05T03:23:02.931Z,981.76
2022-10-05T03:24:02.990Z,981.71
2022-10-05T03:25:03.047Z,981.65
2022-10-05T03:26:03.133Z,981.70
2022-10-05T03:27:03.017Z,981.70
2022-10-05T03:28:03.088Z,981.62
2022-10-05T03:29:03.099Z,981.62
2022-10-05T03:30:03.161Z,981.65
2022-10-05T03:31:03.176Z,981.65
2022-10-05T03:32:03.153Z,981.65
2022-10-05T03:33:03.260Z,981.73
2022-10-05T03:34:03.308Z,981.85
2022-10-05T03:35:03.166Z,981.90
2022-10-05T03:36:03.319Z,981.76
2022-10-05T03:37:03.276Z,981.76
2022-10-05T03:38:03.186Z,981.85
2022-10-05T03:39:03.243Z,981.76
2022-10-05T03:40:03.174Z,981.68
2022-10-05T03:41:03.152Z,981.77
2022-10-05T03:42:03.109Z,981.74
2022-10-05T03:43:03.045Z,981.63
2022-10-05T03:44:03.126Z,981.74
2022-10-05T03:45:03.061Z,981.71
2022-10-05T03:46:03.156Z,981.80
2022-10-05T03:47:03.059Z,981.77
2022-10-05T03:48:03.076Z,981.86
2022-10-05T03:49:03.200Z,981.92
2022-10-05T03:50:03.143Z,981.92
2022-10-05T03:51:03.051Z,981.83
2022-10-05T03:52:03.064Z,981.86
2022-10-05T03:53:03.112Z,981.80
2022-10-05T03:54:03.067Z,981.92
2022-10-05T03:55:03.076Z,981.81
2022-10-05T03:56:03.799Z,981.81
2022-10-05T03:57:03.038Z,981.92
2022-10-05T03:58:03.066Z,981.78
2022-10-05T03:59:02.982Z,981.75
2022-10-05T04:00:02.924Z,981.89
2022-10-05T04:01:02.956Z,981.84
2022-10-05T04:02:02.984Z,981.92
2022-10-05T04:03:03.127Z,981.84
2022-10-05T04:04:02.980Z,981.75
2022-10-05T04:05:02.913Z,981.64
2022-10-05T04:06:02.929Z,981.81
2022-10-05T04:07:02.915Z,981.73
2022-10-05T04:08:02.965Z,981.81
2022-10-05T04:09:02.902Z,981.92
2022-10-05T04:10:03.875Z,981.78
2022-10-05T04:11:03.926Z,981.78
2022-10-05T04:12:03.876Z,981.76
2022-10-05T04:13:03.781Z,981.70
2022-10-05T04:14:03.786Z,981.84
2022-10-05T04:15:03.858Z,981.64
2022-10-05T04:16:04.123Z,981.67
2022-10-05T04:17:03.802Z,981.84
2022-10-05T04:18:03.848Z,981.73
2022-10-05T04:19:03.764Z,981.76
2022-10-05T04:20:03.918Z,981.54
2022-10-05T04:21:03.824Z,981.65
2022-10-05T04:22:03.898Z,981.59
2022-10-05T04:23:02.943Z,981.70
2022-10-05T04:24:03.913Z,981.54
2022-10-05T04:25:03.220Z,981.62
2022-10-05T04:26:03.275Z,981.62
2022-10-05T04:27:03.293Z,981.64
2022-10-05T04:28:03.317Z,981.54
2022-10-05T04:29:03.241Z,981.59
2022-10-05T04:30:03.232Z,981.48
2022-10-05T04:31:03.298Z,981.37
2022-10-05T04:32:03.170Z,981.51
2022-10-05T04:33:03.171Z,981.48
2022-10-05T04:34:03.113Z,981.58
2022-10-05T04:35:03.108Z,981.53
2022-10-05T04:36:03.084Z,981.53
2022-10-05T04:37:03.181Z,981.39
2022-10-05T04:38:03.298Z,981.42
2022-10-05T04:39:03.300Z,981.36
2022-10-05T04:40:03.403Z,981.36
2022-10-05T04:41:03.288Z,981.42
2022-10-05T04:42:03.293Z,981.41
2022-10-05T04:43:03.257Z,981.47
2022-10-05T04:44:03.187Z,981.47
2022-10-05T04:45:03.157Z,981.60
2022-10-05T04:46:03.193Z,981.66
2022-10-05T04:47:03.353Z,981.53
2022-10-05T04:48:03.182Z,981.63
2022-10-05T04:49:03.282Z,981.57
2022-10-05T04:50:03.352Z,981.52
2022-10-05T04:51:03.269Z,981.50
2022-10-05T04:52:03.236Z,981.44
2022-10-05T04:53:03.321Z,981.44
2022-10-05T04:54:03.304Z,981.52
2022-10-05T04:55:03.387Z,981.32
2022-10-05T04:56:03.377Z,981.47
2022-10-05T04:57:03.422Z,981.44
2022-10-05T04:58:03.384Z,981.38
2022-10-05T04:59:03.503Z,981.41
2022-10-05T05:00:03.930Z,981.41
2022-10-05T05:01:03.566Z,981.38
2022-10-05T05:02:03.510Z,981.41
2022-10-05T05:03:03.689Z,981.46
2022-10-05T05:04:03.862Z,981.46
2022-10-05T05:05:03.597Z,981.40
2022-10-05T05:06:18.294Z,981.49
2022-10-05T05:07:03.600Z,981.56
2022-10-05T05:08:03.668Z,981.56
2022-10-05T05:09:03.513Z,981.43
2022-10-05T05:10:03.558Z,981.48
2022-10-05T05:11:03.586Z,981.42
2022-10-05T05:12:03.408Z,981.51
2022-10-05T05:13:03.357Z,981.48
2022-10-05T05:14:03.362Z,981.48
2022-10-05T05:15:03.540Z,981.48
2022-10-05T05:16:03.689Z,981.66
2022-10-05T05:17:03.664Z,981.53
2022-10-05T05:18:03.790Z,981.42
2022-10-05T05:19:03.832Z,981.56
2022-10-05T05:20:03.770Z,981.53
2022-10-05T05:21:03.890Z,981.47
2022-10-05T05:22:03.763Z,981.57
2022-10-05T05:23:03.133Z,981.47
2022-10-05T05:24:03.174Z,981.55
2022-10-05T05:25:03.314Z,981.52
2022-10-05T05:26:03.211Z,981.55
2022-10-05T05:27:03.309Z,981.55
2022-10-05T05:28:03.503Z,981.49
2022-10-05T05:29:03.271Z,981.52
2022-10-05T05:30:03.238Z,981.55
2022-10-05T05:31:03.606Z,981.41
2022-10-05T05:32:03.440Z,981.62
2022-10-05T05:33:03.547Z,981.52
2022-10-05T05:34:03.609Z,981.68
2022-10-05T05:35:03.629Z,981.65
2022-10-05T05:36:03.666Z,981.65
2022-10-05T05:37:03.723Z,981.54
2022-10-05T05:38:03.786Z,981.54
2022-10-05T05:39:03.817Z,981.43
2022-10-05T05:40:02.933Z,981.59
2022-10-05T05:41:02.957Z,981.43
2022-10-05T05:42:03.049Z,981.62
2022-10-05T05:43:02.991Z,981.54
2022-10-05T05:44:03.081Z,981.37
2022-10-05T05:45:03.006Z,981.61
2022-10-05T05:46:03.071Z,981.61
2022-10-05T05:47:05.624Z,981.48
2022-10-05T05:48:03.270Z,981.61
2022-10-05T05:49:03.283Z,981.48
2022-10-05T05:50:07.922Z,981.37
2022-10-05T05:51:03.281Z,981.51
2022-10-05T05:52:03.313Z,981.58
2022-10-05T05:53:03.330Z,981.48
2022-10-05T05:54:03.220Z,981.56
2022-10-05T05:55:03.309Z,981.61
2022-10-05T05:56:03.316Z,981.72
2022-10-05T05:57:03.319Z,981.58
2022-10-05T05:58:03.375Z,981.64
2022-10-05T05:59:03.379Z,981.58
2022-10-05T06:00:03.510Z,981.61
2022-10-05T06:01:03.499Z,981.58
2022-10-05T06:02:03.750Z,981.50
2022-10-05T06:03:03.903Z,981.61
2022-10-05T06:04:03.833Z,981.58
2022-10-05T06:05:03.756Z,981.78
2022-10-05T06:06:02.868Z,981.75
2022-10-05T06:07:03.057Z,981.75
2022-10-05T06:08:03.017Z,981.66
2022-10-05T06:09:03.034Z,981.61
2022-10-05T06:10:03.159Z,981.81
2022-10-05T06:11:03.055Z,981.75
2022-10-05T06:12:03.457Z,981.81
2022-10-05T06:13:03.780Z,981.98
2022-10-05T06:14:03.865Z,981.89
2022-10-05T06:15:03.727Z,981.80
2022-10-05T06:16:03.824Z,981.98
2022-10-05T06:17:03.853Z,981.89
2022-10-05T06:18:02.906Z,981.89
2022-10-05T06:19:03.042Z,981.88
2022-10-05T06:20:05.907Z,981.94
2022-10-05T06:21:03.007Z,981.90
2022-10-05T06:22:03.124Z,981.90
2022-10-05T06:23:03.625Z,981.87
2022-10-05T06:24:03.212Z,981.86
2022-10-05T06:25:03.242Z,981.77
2022-10-05T06:26:09.819Z,981.82
2022-10-05T06:27:03.177Z,981.70
2022-10-05T06:28:03.437Z,981.70
2022-10-05T06:29:03.236Z,981.64
2022-10-05T06:30:03.304Z,981.83
2022-10-05T06:31:03.373Z,981.86
2022-10-05T06:32:03.549Z,981.71
2022-10-05T06:33:03.560Z,981.79
2022-10-05T06:34:03.496Z,981.79
2022-10-05T06:35:03.408Z,981.70
2022-10-05T06:36:03.586Z,981.78
2022-10-05T06:37:03.679Z,981.72
2022-10-05T06:38:03.806Z,981.80
2022-10-05T06:39:03.765Z,981.83
2022-10-05T06:40:03.803Z,981.82
2022-10-05T06:41:03.882Z,981.93
2022-10-05T06:42:02.918Z,981.93
2022-10-05T06:43:02.999Z,981.87
2022-10-05T06:44:02.976Z,981.81
2022-10-05T06:45:03.003Z,981.98
2022-10-05T06:46:03.011Z,982.06
2022-10-05T06:47:03.144Z,982.09
2022-10-05T06:48:05.891Z,982.14
2022-10-05T06:49:03.254Z,982.14
2022-10-05T06:50:03.271Z,981.99
2022-10-05T06:51:03.201Z,981.90
2022-10-05T06:52:03.215Z,982.13
2022-10-05T06:53:03.067Z,982.07
2022-10-05T06:54:03.031Z,982.07
2022-10-05T06:55:03.536Z,982.10
2022-10-05T06:56:03.594Z,982.16
2022-10-05T06:57:03.577Z,982.04
2022-10-05T06:58:03.712Z,982.01
2022-10-05T06:59:03.650Z,982.15
2022-10-05T07:00:03.683Z,982.10
2022-10-05T07:01:03.686Z,982.24
2022-10-05T07:02:03.681Z,982.24
2022-10-05T07:03:03.666Z,982.21
2022-10-05T07:04:03.722Z,982.26
2022-10-05T07:05:03.759Z,982.32
2022-10-05T07:06:03.775Z,982.12
2022-10-05T07:07:03.798Z,982.26
2022-10-05T07:08:03.922Z,982.29
2022-10-05T07:09:03.873Z,982.28
2022-10-05T07:10:02.929Z,982.34
2022-10-05T07:11:03.045Z,982.31
2022-10-05T07:12:06.345Z,982.25
2022-10-05T07:13:03.173Z,982.48
2022-10-05T07:14:03.133Z,982.25
2022-10-05T07:15:03.067Z,982.33
2022-10-05T07:16:03.186Z,982.39
2022-10-05T07:17:03.424Z,982.42
2022-10-05T07:18:03.232Z,982.42
2022-10-05T07:19:03.192Z,982.39
2022-10-05T07:20:03.357Z,982.33
2022-10-05T07:21:03.280Z,982.39
2022-10-05T07:22:03.909Z,982.33
2022-10-05T07:23:02.897Z,982.27
2022-10-05T07:24:03.046Z,982.33
2022-10-05T07:25:03.027Z,982.45
2022-10-05T07:26:03.072Z,982.30
2022-10-05T07:27:03.245Z,982.44
2022-10-05T07:28:03.243Z,982.36
2022-10-05T07:29:03.244Z,982.36
2022-10-05T07:30:03.341Z,982.33
2022-10-05T07:31:03.590Z,982.44
2022-10-05T07:32:03.356Z,982.41
2022-10-05T07:33:03.312Z,982.38
2022-10-05T07:34:03.318Z,982.33
2022-10-05T07:35:03.231Z,982.35
2022-10-05T07:36:03.207Z,982.47
2022-10-05T07:37:03.236Z,982.52
2022-10-05T07:38:03.175Z,982.52
2022-10-05T07:39:03.077Z,982.58
2022-10-05T07:40:03.066Z,982.38
2022-10-05T07:41:03.135Z,982.40
2022-10-05T07:42:03.074Z,982.58
2022-10-05T07:43:03.152Z,982.37
2022-10-05T07:44:05.827Z,982.46
2022-10-05T07:45:03.305Z,982.34
2022-10-05T07:46:03.458Z,982.28
2022-10-05T07:47:03.481Z,982.34
2022-10-05T07:48:03.520Z,982.51
2022-10-05T07:49:03.406Z,982.45
2022-10-05T07:50:03.557Z,982.57
2022-10-05T07:51:03.595Z,982.42
2022-10-05T07:52:03.647Z,982.54
2022-10-05T07:53:03.662Z,982.51
2022-10-05T07:54:03.713Z,982.51
2022-10-05T07:55:03.750Z,982.51
2022-10-05T07:56:03.834Z,982.63
2022-10-05T07:57:03.745Z,982.48
2022-10-05T07:58:03.817Z,982.48
2022-10-05T07:59:02.975Z,982.51
2022-10-05T08:00:02.993Z,982.54
2022-10-05T08:01:03.044Z,982.40
2022-10-05T08:02:03.373Z,982.40
2022-10-05T08:03:03.259Z,982.45
2022-10-05T08:04:03.286Z,982.39
2022-10-05T08:05:03.228Z,982.34
2022-10-05T08:06:03.285Z,982.48
2022-10-05T08:07:03.244Z,982.27
2022-10-05T08:08:03.202Z,982.30
2022-10-05T08:09:03.303Z,982.27
2022-10-05T08:10:03.178Z,982.33
2022-10-05T08:11:03.333Z,982.27
2022-10-05T08:13:03.343Z,982.30
2022-10-05T08:14:03.329Z,982.30
2022-10-05T08:15:03.328Z,982.36
2022-10-05T08:16:03.457Z,982.18
2022-10-05T08:17:03.594Z,982.24
2022-10-05T08:18:03.500Z,982.18
2022-10-05T08:19:02.913Z,982.36
2022-10-05T08:20:03.005Z,982.21
2022-10-05T08:21:03.019Z,982.24
2022-10-05T08:22:03.086Z,982.15
2022-10-05T08:23:03.178Z,982.21
2022-10-05T08:24:03.151Z,982.12
2022-10-05T08:25:03.153Z,982.15
2022-10-05T08:26:03.277Z,982.09
2022-10-05T08:27:03.302Z,982.07
2022-10-05T08:28:03.485Z,982.21
2022-10-05T08:29:03.368Z,982.07
2022-10-05T08:30:03.398Z,982.09
2022-10-05T08:31:03.580Z,982.09
2022-10-05T08:32:03.542Z,982.12
2022-10-05T08:33:03.553Z,981.95
2022-10-05T08:34:03.578Z,981.98
2022-10-05T08:35:03.745Z,981.86
2022-10-05T08:36:03.702Z,981.89
2022-10-05T08:37:03.757Z,981.86
2022-10-05T08:38:02.969Z,982.01
2022-10-05T08:39:03.094Z,981.86
2022-10-05T08:40:03.011Z,981.83
2022-10-05T08:41:02.967Z,981.92
2022-10-05T08:42:02.968Z,982.00
2022-10-05T08:43:02.979Z,981.89
2022-10-05T08:44:03.085Z,981.89
2022-10-05T08:45:03.102Z,981.86
2022-10-05T08:46:03.194Z,981.94
2022-10-05T08:47:03.051Z,981.88
2022-10-05T08:48:03.210Z,981.94
2022-10-05T08:49:03.250Z,981.79
2022-10-05T08:50:03.273Z,981.73
2022-10-05T08:51:03.291Z,981.76
2022-10-05T08:52:03.416Z,981.76
2022-10-05T08:53:03.460Z,981.70
2022-10-05T08:54:03.555Z,981.67
2022-10-05T08:55:03.617Z,981.67
2022-10-05T08:56:03.603Z,981.67
2022-10-05T08:57:03.793Z,981.64
2022-10-05T08:58:03.696Z,981.78
2022-10-05T08:59:03.676Z,981.87
2022-10-05T09:00:03.843Z,981.84
2022-10-05T09:01:04.025Z,981.75
2022-10-05T09:02:03.861Z,981.78
2022-10-05T09:03:03.969Z,981.75
2022-10-05T09:04:03.878Z,981.84
2022-10-05T09:05:03.056Z,981.84
2022-10-05T09:06:02.910Z,981.81
2022-10-05T09:07:02.938Z,981.69
2022-10-05T09:08:02.975Z,981.86
2022-10-05T09:09:03.025Z,981.81
2022-10-05T09:10:03.037Z,981.83
2022-10-05T09:11:03.177Z,981.72
2022-10-05T09:12:03.317Z,981.86
2022-10-05T09:13:03.264Z,981.75
2022-10-05T09:14:03.334Z,981.77
2022-10-05T09:15:26.388Z,981.72
2022-10-05T09:16:03.624Z,981.80
2022-10-05T09:17:03.374Z,981.66
2022-10-05T09:18:03.461Z,981.80
2022-10-05T09:19:03.474Z,981.68
2022-10-05T09:20:03.481Z,981.77
2022-10-05T09:21:03.520Z,981.71
2022-10-05T09:22:03.531Z,981.68
2022-10-05T09:23:03.706Z,981.65
2022-10-05T09:24:03.910Z,981.73
2022-10-05T09:25:03.931Z,981.64
2022-10-05T09:26:03.030Z,981.70
2022-10-05T09:27:03.052Z,981.70
2022-10-05T09:28:03.199Z,981.78
2022-10-05T09:29:03.177Z,981.64
2022-10-05T09:30:03.428Z,981.66
2022-10-05T09:31:03.374Z,981.83
2022-10-05T09:32:03.177Z,981.80
2022-10-05T09:33:03.291Z,981.66
2022-10-05T09:34:03.396Z,981.74
2022-10-05T09:35:03.454Z,981.71
2022-10-05T09:36:03.505Z,981.82
2022-10-05T09:37:03.559Z,981.79
2022-10-05T09:38:03.637Z,981.99
2022-10-05T09:39:03.503Z,981.85
2022-10-05T09:40:03.733Z,981.87
2022-10-05T09:41:03.672Z,981.90
2022-10-05T09:42:03.696Z,981.96
2022-10-05T09:43:03.943Z,982.01
2022-10-05T09:44:02.960Z,981.81
2022-10-05T09:45:02.954Z,981.83
2022-10-05T09:46:03.035Z,982.09
2022-10-05T09:47:02.929Z,981.98
2022-10-05T09:48:03.018Z,982.06
2022-10-05T09:49:03.017Z,982.00
2022-10-05T09:50:02.950Z,982.03
2022-10-05T09:51:02.991Z,982.18
2022-10-05T09:52:03.019Z,982.12
2022-10-05T09:53:02.959Z,982.03
2022-10-05T09:54:02.915Z,982.03
2022-10-05T09:55:03.001Z,982.09
2022-10-05T09:56:02.993Z,982.15
2022-10-05T09:57:02.909Z,982.26
2022-10-05T09:58:03.097Z,982.03
2022-10-05T09:59:03.183Z,982.14
2022-10-05T10:00:03.352Z,982.14
2022-10-05T10:01:32.442Z,982.17
2022-10-05T10:02:03.288Z,982.20
2022-10-05T10:03:03.544Z,982.17
2022-10-05T10:04:03.303Z,982.23
2022-10-05T10:05:03.332Z,982.23
2022-10-05T10:06:03.342Z,982.11
2022-10-05T10:07:03.370Z,982.20
2022-10-05T10:08:03.487Z,982.17
2022-10-05T10:09:03.527Z,982.20
2022-10-05T10:10:03.481Z,982.17
2022-10-05T10:11:03.661Z,982.26
2022-10-05T10:12:03.749Z,982.14
2022-10-05T10:13:03.837Z,982.37
2022-10-05T10:14:03.909Z,982.28
2022-10-05T10:15:03.893Z,982.34
2022-10-05T10:16:03.966Z,982.26
2022-10-05T10:17:03.987Z,982.34
2022-10-05T10:18:03.946Z,982.31
2022-10-05T10:19:02.952Z,982.20
2022-10-05T10:20:02.927Z,982.23
2022-10-05T10:21:02.954Z,982.20
2022-10-05T10:22:03.026Z,982.25
2022-10-05T10:23:03.184Z,982.23
2022-10-05T10:24:03.235Z,982.17
2022-10-05T10:25:03.180Z,982.23
2022-10-05T10:26:03.224Z,982.31
2022-10-05T10:27:03.211Z,982.11
2022-10-05T10:28:03.273Z,982.17
2022-10-05T10:29:03.192Z,982.28
2022-10-05T10:30:03.129Z,982.20
2022-10-05T10:31:03.354Z,982.17
2022-10-05T10:32:03.221Z,982.17
2022-10-05T10:33:03.072Z,982.22
2022-10-05T10:34:03.151Z,982.25
2022-10-05T10:35:03.140Z,982.19
2022-10-05T10:36:07.358Z,982.37
2022-10-05T10:37:03.300Z,982.34
2022-10-05T10:38:03.352Z,982.19
2022-10-05T10:39:03.423Z,982.31
2022-10-05T10:40:03.459Z,982.13
2022-10-05T10:41:03.446Z,982.31
2022-10-05T10:42:03.453Z,982.37
2022-10-05T10:43:03.546Z,982.34
2022-10-05T10:44:03.659Z,982.19
2022-10-05T10:45:03.571Z,982.34
2022-10-05T10:46:03.594Z,982.45
2022-10-05T10:47:03.588Z,982.45
2022-10-05T10:48:03.698Z,982.42
2022-10-05T10:49:03.623Z,982.33
2022-10-05T10:50:03.738Z,982.36
2022-10-05T10:51:03.777Z,982.39
2022-10-05T10:52:03.763Z,982.36
2022-10-05T10:53:03.870Z,982.42
2022-10-05T10:54:02.985Z,982.33
2022-10-05T10:55:03.450Z,982.45
2022-10-05T10:56:03.441Z,982.48
2022-10-05T10:57:03.411Z,982.30
2022-10-05T10:58:03.422Z,982.45
2022-10-05T10:59:03.582Z,982.36
2022-10-05T11:00:03.581Z,982.27
2022-10-05T11:01:03.773Z,982.42
2022-10-05T11:02:03.959Z,982.47
2022-10-05T11:03:03.770Z,982.44
2022-10-05T11:04:03.831Z,982.36
2022-10-05T11:05:03.800Z,982.38
2022-10-05T11:06:03.711Z,982.44
2022-10-05T11:07:03.840Z,982.41
2022-10-05T11:08:03.827Z,982.36
2022-10-05T11:09:03.852Z,982.27
2022-10-05T11:10:03.921Z,982.38
2022-10-05T11:11:03.799Z,982.44
2022-10-05T11:12:03.924Z,982.27
2022-10-05T11:13:03.862Z,982.27
2022-10-05T11:14:03.813Z,982.32
2022-10-05T11:15:03.847Z,982.32
2022-10-05T11:16:04.140Z,982.32
2022-10-05T11:17:03.820Z,982.32
2022-10-05T11:18:03.030Z,982.35
2022-10-05T11:19:02.957Z,982.27
2022-10-05T11:20:05.364Z,982.41
2022-10-05T11:21:03.154Z,982.35
2022-10-05T11:22:03.036Z,982.41
2022-10-05T11:23:03.132Z,982.50
2022-10-05T11:24:03.140Z,982.44
2022-10-05T11:25:03.248Z,982.41
2022-10-05T11:26:03.122Z,982.44
2022-10-05T11:27:03.211Z,982.38
2022-10-05T11:28:03.377Z,982.44
2022-10-05T11:29:03.250Z,982.41
2022-10-05T11:30:03.291Z,982.41
2022-10-05T11:31:03.548Z,982.44
2022-10-05T11:32:03.310Z,982.41
2022-10-05T11:33:03.393Z,982.46
2022-10-05T11:34:03.402Z,982.41
2022-10-05T11:35:03.399Z,982.58
2022-10-05T11:36:03.355Z,982.43
2022-10-05T11:37:03.383Z,982.35
2022-10-05T11:38:03.451Z,982.41
2022-10-05T11:39:03.521Z,982.43
2022-10-05T11:40:03.511Z,982.61
2022-10-05T11:41:03.577Z,982.44
2022-10-05T11:42:03.454Z,982.43
2022-10-05T11:43:03.583Z,982.38
2022-10-05T11:44:07.369Z,982.43
2022-10-05T11:45:03.672Z,982.46
2022-10-05T11:46:03.789Z,982.46
2022-10-05T11:47:03.683Z,982.49
2022-10-05T11:48:03.726Z,982.35
2022-10-05T11:49:03.754Z,982.40
2022-10-05T11:50:03.708Z,982.43
2022-10-05T11:51:03.671Z,982.40
2022-10-05T11:52:03.595Z,982.37
2022-10-05T11:53:03.633Z,982.35
2022-10-05T11:54:03.507Z,982.32
2022-10-05T11:55:12.324Z,982.26
2022-10-05T11:56:03.480Z,982.32
2022-10-05T11:57:03.431Z,982.52
2022-10-05T11:58:03.459Z,982.29
2022-10-05T11:59:03.400Z,982.29
2022-10-05T12:00:03.417Z,982.34
2022-10-05T12:01:03.572Z,982.29
2022-10-05T12:02:03.502Z,982.20
2022-10-05T12:03:03.796Z,982.20
2022-10-05T12:04:03.760Z,982.31
2022-10-05T12:05:03.503Z,982.29
2022-10-05T12:06:03.685Z,982.14
2022-10-05T12:07:03.639Z,982.02
2022-10-05T12:08:03.670Z,982.20
2022-10-05T12:09:03.635Z,982.20
2022-10-05T12:10:03.846Z,982.23
2022-10-05T12:11:03.783Z,982.23
2022-10-05T12:12:03.708Z,982.17
2022-10-05T12:13:03.605Z,982.17
2022-10-05T12:14:03.817Z,982.17
2022-10-05T12:15:03.811Z,982.23
2022-10-05T12:16:03.877Z,982.08
2022-10-05T12:17:03.800Z,982.08
2022-10-05T12:18:03.843Z,982.11
2022-10-05T12:19:03.883Z,982.17
2022-10-05T12:20:03.937Z,981.99
2022-10-05T12:21:02.915Z,982.17
2022-10-05T12:22:03.132Z,982.00
2022-10-05T12:23:03.026Z,982.05
2022-10-05T12:24:03.047Z,982.14
2022-10-05T12:25:03.024Z,982.05
2022-10-05T12:26:03.127Z,982.02
2022-10-05T12:27:03.248Z,982.11
2022-10-05T12:28:03.248Z,982.00
2022-10-05T12:29:03.083Z,982.00